createdAt,value
2023-02-13T00:00:03.466Z,45.12
2023-02-13T00:01:03.427Z,45.44
2023-02-13T00:02:03.521Z,45.76
2023-02-13T00:03:03.458Z,44.96
2023-02-13T00:04:03.411Z,44.96
2023-02-13T00:05:03.406Z,45.28
2023-02-13T00:06:03.409Z,44.96
2023-02-13T00:07:03.446Z,44.96
2023-02-13T00:08:03.401Z,45.28
2023-02-13T00:09:04.662Z,45.12
2023-02-13T00:10:03.420Z,45.28
2023-02-13T00:11:03.412Z,45.60
2023-02-13T00:12:03.420Z,45.12
2023-02-13T00:13:03.384Z,45.12
2023-02-13T00:14:03.426Z,44.63
2023-02-13T00:15:03.366Z,44.96
2023-02-13T00:16:03.472Z,45.44
2023-02-13T00:17:03.384Z,45.44
2023-02-13T00:18:03.328Z,45.28
2023-02-13T00:19:03.376Z,45.44
2023-02-13T00:20:03.329Z,45.28
2023-02-13T00:21:03.320Z,44.63
2023-02-13T00:22:03.330Z,44.79
2023-02-13T00:23:03.334Z,45.76
2023-02-13T00:24:03.329Z,45.12
2023-02-13T00:25:03.349Z,45.12
2023-02-13T00:26:03.327Z,45.28
2023-02-13T00:27:03.298Z,44.79
2023-02-13T00:28:03.366Z,44.79
2023-02-13T00:29:03.340Z,45.44
2023-02-13T00:30:03.289Z,44.63
2023-02-13T00:31:03.401Z,44.96
2023-02-13T00:32:03.390Z,45.44
2023-02-13T00:33:03.278Z,45.28
2023-02-13T00:34:03.304Z,45.12
2023-02-13T00:35:03.305Z,46.41
2023-02-13T00:36:03.282Z,45.28
2023-02-13T00:37:03.266Z,44.96
2023-02-13T00:38:03.281Z,45.12
2023-02-13T00:39:03.273Z,44.96
2023-02-13T00:40:03.297Z,45.76
2023-02-13T00:41:03.237Z,44.63
2023-02-13T00:42:03.289Z,45.12
2023-02-13T00:43:03.204Z,44.96
2023-02-13T00:44:03.236Z,45.12
2023-02-13T00:45:03.203Z,46.25
2023-02-13T00:46:03.250Z,44.96
2023-02-13T00:47:03.236Z,45.28
2023-02-13T00:48:03.199Z,45.76
2023-02-13T00:49:03.204Z,45.28
2023-02-13T00:50:03.167Z,45.12
2023-02-13T00:51:03.206Z,44.63
2023-02-13T00:52:03.175Z,44.63
2023-02-13T00:53:03.179Z,45.12
2023-02-13T00:54:03.180Z,45.12
2023-02-13T00:55:03.169Z,45.28
2023-02-13T00:56:03.186Z,45.12
2023-02-13T00:57:03.160Z,44.79
2023-02-13T00:58:03.238Z,45.28
2023-02-13T00:59:03.130Z,45.28
2023-02-13T01:00:03.126Z,44.96
2023-02-13T01:01:03.141Z,45.12
2023-02-13T01:02:03.169Z,44.63
2023-02-13T01:03:03.123Z,44.79
2023-02-13T01:04:03.190Z,45.12
2023-02-13T01:05:03.128Z,45.28
2023-02-13T01:06:03.109Z,47.37
2023-02-13T01:07:03.190Z,45.60
2023-02-13T01:08:03.124Z,46.89
2023-02-13T01:09:03.083Z,45.12
2023-02-13T01:10:03.101Z,45.12
2023-02-13T01:11:03.082Z,45.28
2023-02-13T01:12:03.108Z,45.28
2023-02-13T01:13:03.104Z,44.96
2023-02-13T01:14:03.082Z,45.12
2023-02-13T01:15:03.075Z,45.28
2023-02-13T01:16:03.111Z,45.28
2023-02-13T01:17:03.076Z,44.96
2023-02-13T01:18:03.104Z,44.96
2023-02-13T01:19:03.053Z,44.96
2023-02-13T01:20:03.075Z,45.28
2023-02-13T01:21:03.055Z,45.28
2023-02-13T01:22:03.063Z,46.73
2023-02-13T01:23:03.077Z,44.96
2023-02-13T01:24:03.080Z,45.12
2023-02-13T01:25:03.018Z,45.28
2023-02-13T01:26:03.051Z,44.96
2023-02-13T01:27:02.991Z,44.96
2023-02-13T01:28:03.024Z,44.96
2023-02-13T01:29:03.037Z,45.12
2023-02-13T01:30:03.018Z,44.96
2023-02-13T01:31:03.356Z,44.96
2023-02-13T01:32:03.018Z,44.96
2023-02-13T01:33:02.968Z,45.12
2023-02-13T01:34:02.982Z,44.96
2023-02-13T01:35:02.988Z,45.44
2023-02-13T01:36:02.987Z,45.28
2023-02-13T01:37:02.954Z,46.25
2023-02-13T01:38:02.961Z,45.60
2023-02-13T01:39:02.963Z,45.12
2023-02-13T01:40:02.984Z,45.12
2023-02-13T01:41:02.992Z,45.28
2023-02-13T01:42:02.951Z,45.28
2023-02-13T01:43:02.919Z,45.28
2023-02-13T01:44:02.967Z,44.96
2023-02-13T01:45:03.001Z,44.79
2023-02-13T01:46:02.914Z,45.12
2023-02-13T01:47:02.960Z,44.79
2023-02-13T01:48:04.171Z,45.12
2023-02-13T01:49:02.913Z,45.44
2023-02-13T01:50:02.896Z,46.25
2023-02-13T01:51:02.899Z,46.41
2023-02-13T01:52:02.893Z,45.12
2023-02-13T01:53:02.864Z,44.79
2023-02-13T01:54:02.870Z,44.79
2023-02-13T01:55:02.876Z,44.96
2023-02-13T01:56:02.874Z,45.28
2023-02-13T01:57:02.893Z,45.76
2023-02-13T01:58:02.841Z,45.28
2023-02-13T01:59:02.845Z,44.96
2023-02-13T02:00:02.838Z,44.96
2023-02-13T02:01:02.846Z,44.96
2023-02-13T02:02:03.962Z,45.44
2023-02-13T02:03:02.842Z,45.28
2023-02-13T02:04:02.802Z,45.28
2023-02-13T02:05:02.835Z,45.12
2023-02-13T02:06:02.832Z,45.28
2023-02-13T02:07:02.851Z,45.12
2023-02-13T02:08:02.794Z,44.96
2023-02-13T02:09:02.777Z,45.28
2023-02-13T02:10:02.808Z,45.44
2023-02-13T02:11:02.804Z,45.28
2023-02-13T02:12:02.799Z,45.92
2023-02-13T02:13:02.797Z,45.28
2023-02-13T02:14:02.757Z,44.47
2023-02-13T02:15:03.786Z,45.28
2023-02-13T02:16:02.804Z,45.44
2023-02-13T02:17:02.752Z,45.44
2023-02-13T02:18:02.796Z,45.92
2023-02-13T02:19:02.756Z,45.44
2023-02-13T02:20:02.717Z,45.28
2023-02-13T02:21:02.736Z,45.44
2023-02-13T02:22:02.713Z,45.44
2023-02-13T02:23:02.714Z,45.76
2023-02-13T02:24:02.758Z,45.44
2023-02-13T02:25:02.748Z,45.28
2023-02-13T02:26:02.684Z,45.60
2023-02-13T02:27:02.693Z,45.76
2023-02-13T02:28:02.751Z,46.25
2023-02-13T02:29:02.712Z,45.76
2023-02-13T02:30:02.674Z,45.60
2023-02-13T02:31:02.831Z,45.28
2023-02-13T02:32:02.717Z,45.60
2023-02-13T02:33:02.659Z,46.89
2023-02-13T02:34:02.668Z,45.92
2023-02-13T02:35:02.681Z,45.12
2023-02-13T02:36:02.684Z,45.44
2023-02-13T02:37:02.627Z,45.28
2023-02-13T02:38:02.657Z,44.96
2023-02-13T02:39:02.680Z,45.44
2023-02-13T02:40:02.635Z,45.92
2023-02-13T02:41:02.618Z,45.44
2023-02-13T02:42:02.601Z,44.96
2023-02-13T02:43:02.610Z,45.76
2023-02-13T02:44:02.581Z,45.92
2023-02-13T02:45:02.636Z,47.05
2023-02-13T02:46:02.591Z,45.60
2023-02-13T02:47:02.612Z,45.60
2023-02-13T02:48:02.584Z,45.60
2023-02-13T02:49:02.607Z,45.76
2023-02-13T02:50:02.577Z,45.92
2023-02-13T02:51:02.556Z,45.76
2023-02-13T02:52:02.608Z,45.44
2023-02-13T02:53:02.542Z,45.76
2023-02-13T02:54:02.598Z,45.44
2023-02-13T02:55:02.546Z,45.76
2023-02-13T02:56:02.552Z,45.60
2023-02-13T02:57:02.579Z,46.25
2023-02-13T02:58:02.532Z,46.41
2023-02-13T02:59:02.531Z,46.73
2023-02-13T03:00:02.552Z,46.08
2023-02-13T03:01:02.581Z,45.12
2023-02-13T03:02:02.537Z,45.12
2023-02-13T03:03:02.491Z,45.12
2023-02-13T03:04:02.577Z,45.28
2023-02-13T03:05:02.483Z,46.25
2023-02-13T03:06:02.466Z,46.25
2023-02-13T03:07:02.493Z,46.08
2023-02-13T03:08:02.509Z,46.08
2023-02-13T03:09:02.494Z,45.60
2023-02-13T03:10:02.477Z,45.44
2023-02-13T03:11:02.457Z,45.44
2023-02-13T03:12:02.458Z,45.44
2023-02-13T03:13:02.467Z,45.28
2023-02-13T03:14:02.501Z,58.49
2023-02-13T03:15:02.479Z,58.17
2023-02-13T03:16:02.518Z,57.69
2023-02-13T03:17:02.448Z,57.20
2023-02-13T03:18:02.447Z,57.69
2023-02-13T03:19:02.424Z,56.88
2023-02-13T03:20:02.462Z,51.40
2023-02-13T03:21:02.410Z,45.76
2023-02-13T03:22:02.388Z,44.96
2023-02-13T03:23:03.416Z,45.28
2023-02-13T03:24:02.426Z,45.28
2023-02-13T03:25:02.454Z,45.28
2023-02-13T03:26:02.372Z,45.76
2023-02-13T03:27:02.381Z,45.92
2023-02-13T03:28:02.416Z,45.28
2023-02-13T03:29:02.385Z,45.28
2023-02-13T03:30:02.388Z,45.44
2023-02-13T03:31:02.444Z,47.37
2023-02-13T03:32:02.332Z,46.08
2023-02-13T03:33:02.355Z,45.92
2023-02-13T03:34:02.386Z,46.73
2023-02-13T03:35:02.498Z,45.28
2023-02-13T03:36:02.377Z,45.28
2023-02-13T03:37:02.331Z,46.57
2023-02-13T03:38:02.322Z,45.12
2023-02-13T03:39:02.315Z,47.05
2023-02-13T03:40:02.333Z,46.57
2023-02-13T03:41:02.321Z,46.57
2023-02-13T03:42:02.296Z,46.73
2023-02-13T03:43:02.360Z,45.28
2023-02-13T03:44:02.282Z,45.92
2023-02-13T03:45:02.293Z,46.41
2023-02-13T03:46:02.397Z,47.05
2023-02-13T03:47:02.279Z,46.89
2023-02-13T03:48:02.250Z,46.08
2023-02-13T03:49:02.279Z,47.53
2023-02-13T03:50:02.270Z,45.92
2023-02-13T03:51:02.267Z,46.73
2023-02-13T03:52:02.224Z,45.60
2023-02-13T03:53:02.272Z,45.76
2023-02-13T03:54:02.232Z,47.70
2023-02-13T03:55:02.237Z,47.70
2023-02-13T03:56:02.213Z,45.12
2023-02-13T03:57:02.221Z,45.28
2023-02-13T03:58:02.256Z,46.89
2023-02-13T03:59:02.223Z,47.05
2023-02-13T04:00:02.219Z,47.37
2023-02-13T04:01:02.203Z,48.34
2023-02-13T04:02:02.275Z,48.02
2023-02-13T04:03:02.209Z,46.89
2023-02-13T04:04:02.228Z,47.53
2023-02-13T04:05:02.165Z,47.37
2023-02-13T04:06:02.176Z,45.44
2023-02-13T04:07:02.201Z,46.73
2023-02-13T04:08:02.143Z,46.08
2023-02-13T04:09:02.139Z,45.44
2023-02-13T04:10:02.198Z,45.28
2023-02-13T04:11:02.155Z,47.70
2023-02-13T04:12:02.123Z,47.21
2023-02-13T04:13:02.133Z,47.21
2023-02-13T04:14:02.133Z,48.02
2023-02-13T04:15:02.120Z,46.73
2023-02-13T04:16:02.134Z,47.53
2023-02-13T04:17:03.096Z,48.50
2023-02-13T04:18:02.158Z,49.15
2023-02-13T04:19:02.109Z,48.66
2023-02-13T04:20:02.136Z,50.60
2023-02-13T04:21:02.124Z,50.76
2023-02-13T04:22:02.112Z,47.53
2023-02-13T04:23:02.063Z,47.86
2023-02-13T04:24:02.069Z,47.37
2023-02-13T04:25:02.065Z,46.73
2023-02-13T04:26:02.080Z,49.47
2023-02-13T04:27:02.092Z,48.18
2023-02-13T04:28:02.102Z,51.24
2023-02-13T04:29:02.034Z,51.24
2023-02-13T04:30:02.193Z,49.15
2023-02-13T04:31:02.478Z,49.15
2023-02-13T04:32:02.134Z,49.95
2023-02-13T04:33:02.025Z,49.31
2023-02-13T04:34:02.017Z,49.47
2023-02-13T04:35:02.003Z,51.24
2023-02-13T04:36:02.024Z,52.05
2023-02-13T04:37:02.023Z,48.98
2023-02-13T04:38:02.080Z,48.66
2023-02-13T04:39:01.987Z,50.43
2023-02-13T04:40:01.971Z,52.53
2023-02-13T04:41:01.990Z,49.95
2023-02-13T04:42:02.049Z,50.27
2023-02-13T04:43:02.016Z,48.50
2023-02-13T04:44:01.984Z,48.66
2023-02-13T04:45:02.019Z,47.53
2023-02-13T04:46:02.362Z,48.98
2023-02-13T04:47:01.964Z,48.18
2023-02-13T04:48:01.933Z,49.47
2023-02-13T04:49:01.943Z,47.86
2023-02-13T04:50:02.070Z,48.98
2023-02-13T04:51:01.926Z,46.73
2023-02-13T04:52:01.930Z,47.37
2023-02-13T04:53:01.917Z,48.18
2023-02-13T04:54:01.948Z,50.76
2023-02-13T04:55:01.945Z,50.43
2023-02-13T04:56:02.898Z,49.15
2023-02-13T04:57:01.907Z,48.98
2023-02-13T04:58:01.908Z,47.21
2023-02-13T04:59:01.874Z,48.98
2023-02-13T05:00:01.930Z,48.02
2023-02-13T05:01:01.988Z,51.08
2023-02-13T05:02:01.871Z,48.66
2023-02-13T05:03:01.873Z,48.50
2023-02-13T05:04:01.931Z,47.86
2023-02-13T05:05:02.883Z,50.11
2023-02-13T05:06:01.854Z,53.50
2023-02-13T05:07:02.001Z,50.43
2023-02-13T05:08:01.824Z,48.98
2023-02-13T05:09:01.820Z,51.40
2023-02-13T05:10:01.840Z,50.60
2023-02-13T05:11:01.827Z,49.95
2023-02-13T05:12:01.828Z,49.47
2023-02-13T05:13:01.820Z,50.27
2023-02-13T05:14:01.803Z,49.63
2023-02-13T05:15:01.807Z,48.82
2023-02-13T05:16:01.876Z,47.86
2023-02-13T05:17:01.799Z,50.43
2023-02-13T05:18:01.781Z,50.92
2023-02-13T05:19:01.762Z,51.40
2023-02-13T05:20:01.816Z,48.66
2023-02-13T05:21:01.799Z,50.43
2023-02-13T05:22:01.802Z,52.05
2023-02-13T05:23:01.735Z,52.21
2023-02-13T05:24:01.751Z,49.95
2023-02-13T05:25:01.749Z,48.66
2023-02-13T05:26:01.764Z,52.05
2023-02-13T05:27:01.727Z,48.82
2023-02-13T05:28:01.819Z,51.24
2023-02-13T05:29:01.727Z,50.11
2023-02-13T05:30:01.760Z,52.05
2023-02-13T05:31:02.305Z,50.27
2023-02-13T05:32:01.841Z,50.60
2023-02-13T05:33:01.706Z,50.43
2023-02-13T05:34:01.696Z,49.15
2023-02-13T05:35:04.053Z,51.56
2023-02-13T05:36:02.702Z,53.01
2023-02-13T05:37:01.717Z,51.56
2023-02-13T05:38:01.692Z,53.01
2023-02-13T05:39:01.673Z,51.24
2023-02-13T05:40:01.679Z,52.53
2023-02-13T05:41:01.667Z,49.95
2023-02-13T05:42:01.670Z,51.24
2023-02-13T05:43:01.703Z,52.21
2023-02-13T05:44:01.693Z,51.88
2023-02-13T05:45:01.664Z,49.31
2023-02-13T05:46:01.657Z,48.50
2023-02-13T05:47:01.661Z,49.63
2023-02-13T05:48:01.743Z,52.05
2023-02-13T05:49:03.889Z,52.85
2023-02-13T05:50:01.647Z,53.33
2023-02-13T05:51:01.629Z,50.27
2023-02-13T05:52:01.595Z,52.05
2023-02-13T05:53:01.634Z,49.95
2023-02-13T05:54:01.622Z,50.43
2023-02-13T05:55:01.585Z,51.56
2023-02-13T05:56:01.580Z,49.15
2023-02-13T05:57:01.565Z,52.21
2023-02-13T05:58:01.562Z,54.79
2023-02-13T05:59:01.583Z,52.85
2023-02-13T06:00:01.594Z,50.11
2023-02-13T06:01:01.572Z,51.40
2023-02-13T06:02:01.556Z,52.69
2023-02-13T06:03:01.586Z,56.07
2023-02-13T06:04:03.772Z,57.69
2023-02-13T06:05:02.546Z,52.69
2023-02-13T06:06:01.559Z,52.37
2023-02-13T06:07:01.538Z,51.88
2023-02-13T06:08:01.524Z,50.11
2023-02-13T06:09:01.547Z,51.56
2023-02-13T06:10:01.509Z,51.56
2023-02-13T06:11:01.940Z,49.47
2023-02-13T06:12:01.494Z,51.88
2023-02-13T06:13:01.545Z,49.79
2023-02-13T06:14:01.571Z,50.11
2023-02-13T06:15:01.487Z,52.85
2023-02-13T06:16:01.547Z,53.33
2023-02-13T06:17:01.480Z,52.37
2023-02-13T06:18:01.476Z,51.08
2023-02-13T06:19:01.477Z,51.40
2023-02-13T06:20:01.474Z,52.69
2023-02-13T06:21:01.486Z,53.01
2023-02-13T06:22:01.753Z,54.46
2023-02-13T06:23:01.469Z,54.46
2023-02-13T06:24:01.571Z,53.17
2023-02-13T06:25:01.471Z,53.17
2023-02-13T06:26:01.417Z,54.95
2023-02-13T06:27:01.436Z,51.72
2023-02-13T06:28:01.483Z,56.88
2023-02-13T06:29:01.436Z,55.59
2023-02-13T06:30:01.419Z,53.33
2023-02-13T06:31:02.070Z,54.79
2023-02-13T06:32:01.484Z,52.05
2023-02-13T06:33:01.402Z,52.53
2023-02-13T06:34:01.402Z,51.24
2023-02-13T06:35:02.185Z,54.79
2023-02-13T06:36:01.370Z,52.69
2023-02-13T06:37:01.389Z,55.43
2023-02-13T06:38:01.391Z,52.69
2023-02-13T06:39:01.399Z,56.24
2023-02-13T06:40:01.342Z,53.01
2023-02-13T06:41:01.338Z,55.43
2023-02-13T06:42:01.404Z,54.62
2023-02-13T06:43:01.375Z,50.92
2023-02-13T06:44:01.327Z,50.92
2023-02-13T06:45:01.370Z,53.82
2023-02-13T06:46:01.344Z,55.91
2023-02-13T06:47:01.374Z,56.24
2023-02-13T06:48:01.316Z,53.01
2023-02-13T06:49:01.290Z,53.98
2023-02-13T06:50:01.357Z,53.01
2023-02-13T06:51:01.288Z,54.62
2023-02-13T06:52:01.300Z,55.75
2023-02-13T06:53:01.267Z,52.05
2023-02-13T06:54:01.314Z,51.56
2023-02-13T06:55:01.347Z,49.95
2023-02-13T06:56:01.485Z,49.95
2023-02-13T06:57:02.308Z,50.43
2023-02-13T06:58:01.288Z,52.69
2023-02-13T06:59:01.270Z,52.69
2023-02-13T07:00:01.286Z,49.79
2023-02-13T07:01:01.332Z,49.79
2023-02-13T07:02:01.235Z,50.11
2023-02-13T07:03:01.311Z,49.95
2023-02-13T07:04:01.234Z,51.40
2023-02-13T07:05:01.241Z,52.21
2023-02-13T07:06:05.620Z,52.21
2023-02-13T07:07:01.205Z,48.98
2023-02-13T07:08:01.216Z,50.92
2023-02-13T07:09:01.222Z,53.50
2023-02-13T07:10:01.327Z,51.56
2023-02-13T07:11:01.227Z,50.43
2023-02-13T07:12:01.181Z,52.69
2023-02-13T07:13:06.015Z,53.98
2023-02-13T07:14:03.153Z,56.07
2023-02-13T07:15:01.175Z,54.46
2023-02-13T07:16:01.331Z,49.79
2023-02-13T07:17:01.174Z,52.85
2023-02-13T07:18:01.154Z,52.85
2023-02-13T07:19:01.170Z,52.53
2023-02-13T07:20:01.154Z,53.50
2023-02-13T07:21:01.123Z,54.95
2023-02-13T07:22:01.161Z,52.53
2023-02-13T07:23:01.130Z,48.50
2023-02-13T07:24:01.112Z,50.76
2023-02-13T07:25:01.170Z,51.88
2023-02-13T07:26:01.109Z,53.01
2023-02-13T07:27:01.103Z,54.14
2023-02-13T07:28:01.178Z,51.24
2023-02-13T07:29:10.833Z,52.05
2023-02-13T07:30:03.084Z,51.88
2023-02-13T07:31:01.130Z,50.76
2023-02-13T07:32:01.128Z,53.01
2023-02-13T07:33:01.086Z,48.18
2023-02-13T07:34:01.081Z,48.66
2023-02-13T07:35:02.789Z,51.08
2023-02-13T07:36:02.051Z,49.79
2023-02-13T07:37:01.083Z,50.43
2023-02-13T07:38:01.084Z,51.56
2023-02-13T07:39:01.029Z,51.08
2023-02-13T07:40:01.021Z,49.79
2023-02-13T07:41:01.023Z,52.85
2023-02-13T07:42:01.058Z,51.08
2023-02-13T07:43:01.065Z,49.63
2023-02-13T07:44:01.035Z,49.95
2023-02-13T07:45:01.045Z,51.72
2023-02-13T07:46:01.001Z,49.95
2023-02-13T07:47:01.097Z,51.40
2023-02-13T07:48:01.001Z,51.24
2023-02-13T07:49:01.051Z,48.98
2023-02-13T07:50:00.974Z,54.30
2023-02-13T07:51:00.971Z,52.37
2023-02-13T07:52:00.962Z,53.01
2023-02-13T07:53:00.980Z,50.11
2023-02-13T07:54:01.008Z,55.11
2023-02-13T07:55:00.970Z,52.37
2023-02-13T07:56:00.974Z,51.08
2023-02-13T07:57:00.934Z,48.82
2023-02-13T07:58:00.964Z,50.92
2023-02-13T07:59:00.929Z,51.56
2023-02-13T08:00:00.960Z,49.63
2023-02-13T08:01:00.935Z,53.33
2023-02-13T08:02:01.043Z,52.21
2023-02-13T08:03:00.942Z,51.72
2023-02-13T08:04:00.937Z,51.72
2023-02-13T08:05:00.898Z,52.05
2023-02-13T08:06:00.996Z,49.95
2023-02-13T08:07:00.925Z,51.72
2023-02-13T08:08:00.900Z,49.47
2023-02-13T08:09:00.923Z,52.85
2023-02-13T08:10:00.940Z,52.37
2023-02-13T08:11:00.888Z,50.11
2023-02-13T08:12:00.874Z,52.37
2023-02-13T08:13:00.898Z,50.92
2023-02-13T08:14:00.879Z,49.63
2023-02-13T08:15:00.844Z,47.21
2023-02-13T08:16:00.937Z,49.79
2023-02-13T08:17:00.902Z,50.43
2023-02-13T08:18:00.882Z,49.15
2023-02-13T08:19:00.890Z,49.47
2023-02-13T08:20:00.884Z,47.53
2023-02-13T08:21:00.862Z,47.70
2023-02-13T08:22:00.853Z,49.15
2023-02-13T08:23:00.848Z,49.63
2023-02-13T08:24:00.854Z,47.21
2023-02-13T08:25:00.911Z,47.86
2023-02-13T08:26:01.240Z,47.53
2023-02-13T08:27:00.817Z,48.82
2023-02-13T08:28:00.839Z,49.31
2023-02-13T08:29:00.774Z,49.15
2023-02-13T08:30:00.794Z,49.31
2023-02-13T08:31:00.823Z,49.31
2023-02-13T08:32:00.884Z,48.50
2023-02-13T08:33:00.784Z,48.66
2023-02-13T08:34:00.753Z,51.40
2023-02-13T08:35:00.754Z,49.15
2023-02-13T08:36:00.755Z,49.47
2023-02-13T08:37:00.733Z,49.79
2023-02-13T08:38:00.755Z,47.86
2023-02-13T08:39:00.731Z,47.86
2023-02-13T08:40:00.752Z,47.37
2023-02-13T08:41:00.724Z,48.66
2023-02-13T08:42:00.741Z,49.63
2023-02-13T08:43:00.689Z,48.02
2023-02-13T08:44:00.770Z,48.98
2023-02-13T08:45:00.698Z,48.02
2023-02-13T08:46:01.141Z,48.66
2023-02-13T08:47:00.681Z,48.02
2023-02-13T08:48:00.705Z,49.79
2023-02-13T08:49:00.713Z,48.66
2023-02-13T08:50:00.665Z,50.92
2023-02-13T08:51:00.682Z,46.89
2023-02-13T08:52:00.672Z,50.60
2023-02-13T08:53:00.711Z,48.66
2023-02-13T08:54:00.654Z,49.79
2023-02-13T08:55:00.623Z,50.60
2023-02-13T08:56:00.948Z,47.70
2023-02-13T08:57:00.637Z,47.70
2023-02-13T08:58:00.682Z,50.11
2023-02-13T08:59:00.626Z,51.56
2023-02-13T09:00:00.654Z,48.82
2023-02-13T09:01:00.684Z,50.27
2023-02-13T09:02:00.624Z,48.98
2023-02-13T09:03:00.665Z,47.21
2023-02-13T09:04:00.651Z,46.41
2023-02-13T09:05:00.613Z,50.11
2023-02-13T09:06:00.832Z,50.11
2023-02-13T09:07:00.597Z,49.47
2023-02-13T09:08:00.591Z,49.31
2023-02-13T09:09:00.618Z,47.70
2023-02-13T09:10:00.595Z,47.53
2023-02-13T09:11:00.633Z,46.89
2023-02-13T09:12:00.589Z,47.53
2023-02-13T09:13:00.607Z,49.47
2023-02-13T09:14:00.594Z,46.73
2023-02-13T09:15:00.555Z,46.73
2023-02-13T09:16:00.674Z,48.02
2023-02-13T09:17:00.662Z,48.18
2023-02-13T09:18:00.563Z,47.21
2023-02-13T09:19:00.542Z,49.15
2023-02-13T09:20:00.572Z,47.86
2023-02-13T09:21:00.560Z,46.25
2023-02-13T09:22:00.511Z,48.66
2023-02-13T09:23:00.526Z,47.37
2023-02-13T09:24:00.523Z,48.18
2023-02-13T09:25:00.566Z,48.98
2023-02-13T09:26:00.598Z,48.82
2023-02-13T09:27:00.529Z,49.63
2023-02-13T09:28:00.583Z,48.34
2023-02-13T09:29:00.489Z,48.82
2023-02-13T09:30:00.523Z,48.66
2023-02-13T09:31:00.610Z,49.15
2023-02-13T09:32:00.541Z,49.47
2023-02-13T09:33:01.470Z,48.66
2023-02-13T09:34:00.471Z,49.15
2023-02-13T09:35:00.511Z,46.08
2023-02-13T09:36:00.464Z,47.37
2023-02-13T09:37:00.503Z,47.86
2023-02-13T09:38:00.436Z,51.40
2023-02-13T09:39:00.428Z,49.47
2023-02-13T09:40:00.484Z,48.34
2023-02-13T09:41:00.442Z,47.53
2023-02-13T09:42:00.442Z,49.63
2023-02-13T09:43:00.527Z,49.47
2023-02-13T09:44:00.410Z,49.15
2023-02-13T09:45:00.397Z,48.02
2023-02-13T09:46:00.916Z,49.79
2023-02-13T09:47:00.443Z,47.86
2023-02-13T09:48:00.405Z,47.21
2023-02-13T09:49:00.402Z,48.34
2023-02-13T09:50:00.384Z,48.98
2023-02-13T09:51:00.371Z,50.27
2023-02-13T09:52:00.398Z,49.95
2023-02-13T09:53:00.360Z,50.11
2023-02-13T09:54:00.357Z,48.82
2023-02-13T09:55:00.386Z,48.98
2023-02-13T09:56:00.342Z,47.53
2023-02-13T09:57:00.361Z,50.43
2023-02-13T09:58:00.407Z,48.82
2023-02-13T09:59:00.319Z,47.05
2023-02-13T10:00:00.318Z,50.27
2023-02-13T10:01:00.307Z,50.11
2023-02-13T10:02:00.322Z,52.05
2023-02-13T10:03:00.337Z,53.50
2023-02-13T10:04:00.300Z,54.14
2023-02-13T10:05:00.303Z,48.50
2023-02-13T10:06:00.693Z,49.63
2023-02-13T10:07:00.323Z,47.86
2023-02-13T10:08:00.270Z,48.02
2023-02-13T10:09:00.280Z,47.86
2023-02-13T10:10:00.291Z,47.86
2023-02-13T10:11:00.246Z,49.31
2023-02-13T10:12:00.258Z,50.27
2023-02-13T10:13:00.289Z,48.34
2023-02-13T10:14:00.227Z,47.37
2023-02-13T10:15:00.226Z,49.47
2023-02-13T10:16:00.639Z,48.34
2023-02-13T10:17:00.224Z,48.82
2023-02-13T10:18:00.232Z,49.15
2023-02-13T10:19:00.209Z,48.02
2023-02-13T10:20:00.204Z,50.92
2023-02-13T10:21:00.224Z,48.82
2023-02-13T10:22:00.177Z,48.02
2023-02-13T10:23:00.193Z,47.86
2023-02-13T10:24:00.223Z,47.86
2023-02-13T10:25:00.157Z,48.82
2023-02-13T10:26:00.431Z,48.34
2023-02-13T10:27:00.147Z,48.34
2023-02-13T10:28:00.268Z,46.89
2023-02-13T10:29:00.203Z,46.89
2023-02-13T10:30:00.154Z,49.63
2023-02-13T10:31:00.264Z,48.66
2023-02-13T10:32:00.238Z,47.53
2023-02-13T10:33:00.117Z,48.50
2023-02-13T10:34:00.151Z,49.31
2023-02-13T10:35:00.136Z,48.66
2023-02-13T10:36:00.203Z,48.34
2023-02-13T10:37:00.096Z,48.02
2023-02-13T10:38:00.156Z,47.86
2023-02-13T10:39:00.071Z,49.15
2023-02-13T10:40:00.115Z,49.95
2023-02-13T10:41:00.108Z,49.31
2023-02-13T10:42:00.036Z,47.86
2023-02-13T10:43:00.036Z,49.15
2023-02-13T10:44:00.010Z,47.37
2023-02-13T10:45:00.060Z,47.37
2023-02-13T10:46:00.510Z,50.27
2023-02-13T10:46:59.992Z,48.98
2023-02-13T10:48:00.537Z,48.18
2023-02-13T10:48:59.964Z,46.57
2023-02-13T10:50:00.013Z,49.47
2023-02-13T10:50:59.966Z,48.82
2023-02-13T10:51:59.957Z,48.02
2023-02-13T10:52:59.985Z,48.82
2023-02-13T10:54:00.957Z,49.95
2023-02-13T10:55:01.609Z,48.50
2023-02-13T10:56:00.255Z,46.73
2023-02-13T10:56:59.922Z,49.15
2023-02-13T10:57:59.954Z,48.02
2023-02-13T10:58:59.901Z,51.08
2023-02-13T10:59:59.944Z,47.70
2023-02-13T11:00:59.926Z,48.18
2023-02-13T11:01:59.953Z,49.31
2023-02-13T11:03:00.872Z,48.66
2023-02-13T11:04:00.905Z,47.53
2023-02-13T11:04:59.869Z,46.89
2023-02-13T11:06:00.170Z,48.66
2023-02-13T11:06:59.882Z,49.47
2023-02-13T11:07:59.859Z,48.82
2023-02-13T11:08:59.860Z,50.11
2023-02-13T11:09:59.830Z,49.15
2023-02-13T11:10:59.944Z,47.21
2023-02-13T11:11:59.884Z,47.05
2023-02-13T11:12:59.810Z,48.34
2023-02-13T11:13:59.801Z,48.50
2023-02-13T11:14:59.801Z,47.53
2023-02-13T11:16:00.339Z,49.63
2023-02-13T11:16:59.773Z,49.47
2023-02-13T11:17:59.773Z,50.27
2023-02-13T11:18:59.736Z,48.18
2023-02-13T11:19:59.781Z,47.86
2023-02-13T11:20:59.797Z,48.82
2023-02-13T11:21:59.778Z,48.02
2023-02-13T11:22:59.727Z,48.18
2023-02-13T11:23:59.752Z,48.98
2023-02-13T11:25:00.736Z,50.43
2023-02-13T11:25:59.948Z,50.43
2023-02-13T11:26:59.740Z,50.27
2023-02-13T11:27:59.735Z,49.95
2023-02-13T11:28:59.781Z,47.53
2023-02-13T11:29:59.703Z,51.08
2023-02-13T11:30:59.774Z,47.53
2023-02-13T11:31:59.904Z,48.98
2023-02-13T11:32:59.683Z,47.37
2023-02-13T11:33:59.629Z,47.21
2023-02-13T11:34:59.658Z,49.79
2023-02-13T11:35:59.820Z,50.27
2023-02-13T11:36:59.626Z,49.79
2023-02-13T11:37:59.635Z,48.02
2023-02-13T11:38:59.639Z,48.98
2023-02-13T11:39:59.599Z,50.60
2023-02-13T11:40:59.613Z,49.31
2023-02-13T11:41:59.574Z,48.34
2023-02-13T11:42:59.569Z,50.76
2023-02-13T11:43:59.629Z,47.86
2023-02-13T11:44:59.559Z,50.60
2023-02-13T11:45:59.994Z,49.79
2023-02-13T11:46:59.612Z,48.50
2023-02-13T11:47:59.550Z,49.47
2023-02-13T11:48:59.558Z,49.31
2023-02-13T11:49:59.556Z,48.98
2023-02-13T11:50:59.530Z,48.50
2023-02-13T11:51:59.538Z,47.86
2023-02-13T11:52:59.508Z,49.15
2023-02-13T11:53:59.533Z,50.76
2023-02-13T11:54:59.510Z,50.76
2023-02-13T11:55:59.908Z,49.95
2023-02-13T11:57:06.525Z,52.05
2023-02-13T11:58:01.478Z,48.18
2023-02-13T11:58:59.490Z,48.82
2023-02-13T11:59:59.456Z,48.66
2023-02-13T12:00:59.480Z,46.89
2023-02-13T12:01:59.428Z,50.43
2023-02-13T12:02:59.608Z,47.70
2023-02-13T12:03:59.454Z,47.86
2023-02-13T12:04:59.427Z,47.53
2023-02-13T12:05:59.936Z,48.50
2023-02-13T12:06:59.786Z,49.15
2023-02-13T12:07:59.413Z,48.34
2023-02-13T12:08:59.462Z,49.63
2023-02-13T12:09:59.381Z,48.34
2023-02-13T12:10:59.368Z,46.08
2023-02-13T12:11:59.389Z,48.66
2023-02-13T12:12:59.379Z,50.27
2023-02-13T12:13:59.367Z,48.66
2023-02-13T12:14:59.354Z,47.70
2023-02-13T12:15:59.799Z,47.86
2023-02-13T12:16:59.366Z,47.53
2023-02-13T12:17:59.337Z,46.57
2023-02-13T12:18:59.392Z,47.70
2023-02-13T12:19:59.324Z,49.31
2023-02-13T12:20:59.779Z,49.95
2023-02-13T12:21:59.313Z,50.11
2023-02-13T12:22:59.321Z,48.82
2023-02-13T12:23:59.264Z,49.79
2023-02-13T12:24:59.281Z,49.47
2023-02-13T12:25:59.673Z,49.47
2023-02-13T12:26:59.271Z,49.63
2023-02-13T12:27:59.250Z,49.95
2023-02-13T12:28:59.368Z,49.95
2023-02-13T12:29:59.366Z,51.56
2023-02-13T12:30:59.604Z,49.95
2023-02-13T12:31:59.291Z,48.82
2023-02-13T12:32:59.204Z,47.37
2023-02-13T12:33:59.207Z,47.86
2023-02-13T12:34:59.198Z,49.95
2023-02-13T12:35:59.201Z,48.82
2023-02-13T12:36:59.195Z,49.47
2023-02-13T12:37:59.183Z,50.27
2023-02-13T12:38:59.180Z,49.15
2023-02-13T12:39:59.176Z,49.31
2023-02-13T12:40:59.688Z,52.37
2023-02-13T12:41:59.156Z,48.18
2023-02-13T12:42:59.120Z,47.37
2023-02-13T12:43:59.180Z,48.18
2023-02-13T12:44:59.130Z,49.31
2023-02-13T12:45:59.250Z,48.34
2023-02-13T12:46:59.163Z,48.66
2023-02-13T12:47:59.106Z,48.66
2023-02-13T12:48:59.076Z,47.37
2023-02-13T12:49:59.076Z,48.66
2023-02-13T12:50:59.406Z,47.21
2023-02-13T12:51:59.084Z,49.63